sensor_id;sensor_type;location;lat;lon;timestamp;pressure;altitude;pressure_sealevel;temperature;humidity
80585;BME280;70137;56.482;9.154;2023-07-20T00:01:25;100849.13;;;11.86;78.30
80585;BME280;70137;56.482;9.154;2023-07-20T00:03:51;100852.06;;;11.83;78.74
80585;BME280;70137;56.482;9.154;2023-07-20T00:06:22;100852.06;;;11.83;79.06
80585;BME280;70137;56.482;9.154;2023-07-20T00:08:49;100850.63;;;11.80;79.57
80585;BME280;70137;56.482;9.154;2023-07-20T00:11:14;100854.03;;;11.81;79.26
80585;BME280;70137;56.482;9.154;2023-07-20T00:13:40;100848.16;;;11.79;79.67
80585;BME280;70137;56.482;9.154;2023-07-20T00:16:05;100842.31;;;11.76;78.96
80585;BME280;70137;56.482;9.154;2023-07-20T00:18:30;100848.03;;;11.72;79.16
80585;BME280;70137;56.482;9.154;2023-07-20T00:20:56;100841.69;;;11.66;79.39
80585;BME280;70137;56.482;9.154;2023-07-20T00:23:21;100837.66;;;11.64;79.03
80585;BME280;70137;56.482;9.154;2023-07-20T00:25:48;100837.81;;;11.62;79.53
80585;BME280;70137;56.482;9.154;2023-07-20T00:28:13;100835.88;;;11.64;79.20
80585;BME280;70137;56.482;9.154;2023-07-20T00:30:39;100837.19;;;11.60;78.99
80585;BME280;70137;56.482;9.154;2023-07-20T00:33:06;100832.00;;;11.60;79.00
80585;BME280;70137;56.482;9.154;2023-07-20T00:35:31;100825.00;;;11.61;79.17
80585;BME280;70137;56.482;9.154;2023-07-20T00:37:57;100821.44;;;11.62;80.01
80585;BME280;70137;56.482;9.154;2023-07-20T00:40:22;100829.06;;;11.63;79.73
80585;BME280;70137;56.482;9.154;2023-07-20T00:42:47;100821.09;;;11.65;79.93
80585;BME280;70137;56.482;9.154;2023-07-20T00:45:13;100823.53;;;11.66;80.00
80585;BME280;70137;56.482;9.154;2023-07-20T00:47:38;100822.22;;;11.70;80.14
80585;BME280;70137;56.482;9.154;2023-07-20T00:50:05;100819.91;;;11.75;80.75
80585;BME280;70137;56.482;9.154;2023-07-20T00:52:30;100822.06;;;11.80;80.02
80585;BME280;70137;56.482;9.154;2023-07-20T00:54:56;100822.84;;;11.81;80.92
80585;BME280;70137;56.482;9.154;2023-07-20T00:57:22;100820.91;;;11.83;80.78
80585;BME280;70137;56.482;9.154;2023-07-20T00:59:49;100812.13;;;11.84;81.28
80585;BME280;70137;56.482;9.154;2023-07-20T01:02:14;100818.94;;;11.85;81.52
80585;BME280;70137;56.482;9.154;2023-07-20T01:04:40;100820.56;;;11.86;80.98
80585;BME280;70137;56.482;9.154;2023-07-20T01:07:18;100823.81;;;11.88;81.38
80585;BME280;70137;56.482;9.154;2023-07-20T01:09:52;100822.03;;;11.88;81.72
80585;BME280;70137;56.482;9.154;2023-07-20T01:12:22;100824.63;;;11.88;81.63
80585;BME280;70137;56.482;9.154;2023-07-20T01:14:51;100826.41;;;11.88;81.65
80585;BME280;70137;56.482;9.154;2023-07-20T01:17:17;100829.00;;;11.88;80.60
80585;BME280;70137;56.482;9.154;2023-07-20T01:19:42;100823.16;;;11.86;80.50
80585;BME280;70137;56.482;9.154;2023-07-20T01:33:15;100816.84;;;11.80;79.99
80585;BME280;70137;56.482;9.154;2023-07-20T01:35:43;100816.06;;;11.80;80.04
80585;BME280;70137;56.482;9.154;2023-07-20T01:38:10;100812.78;;;11.78;80.72
80585;BME280;70137;56.482;9.154;2023-07-20T01:40:37;100822.50;;;11.75;80.74
80585;BME280;70137;56.482;9.154;2023-07-20T01:43:02;100817.66;;;11.72;80.64
80585;BME280;70137;56.482;9.154;2023-07-20T01:45:28;100815.06;;;11.72;81.12
80585;BME280;70137;56.482;9.154;2023-07-20T01:47:53;100811.50;;;11.73;80.43
80585;BME280;70137;56.482;9.154;2023-07-20T01:50:19;100808.09;;;11.73;81.04
80585;BME280;70137;56.482;9.154;2023-07-20T01:52:44;100802.88;;;11.73;80.67
80585;BME280;70137;56.482;9.154;2023-07-20T01:55:09;100809.88;;;11.72;80.79
80585;BME280;70137;56.482;9.154;2023-07-20T01:57:35;100799.47;;;11.72;81.65
80585;BME280;70137;56.482;9.154;2023-07-20T02:00:00;100808.25;;;11.71;81.27
80585;BME280;70137;56.482;9.154;2023-07-20T02:10:12;100812.16;;;11.67;82.11
80585;BME280;70137;56.482;9.154;2023-07-20T02:12:37;100806.16;;;11.67;82.61
80585;BME280;70137;56.482;9.154;2023-07-20T02:15:03;100799.16;;;11.67;83.05
80585;BME280;70137;56.482;9.154;2023-07-20T02:17:28;100800.16;;;11.66;83.19
80585;BME280;70137;56.482;9.154;2023-07-20T02:19:54;100801.75;;;11.67;82.73
80585;BME280;70137;56.482;9.154;2023-07-20T02:22:20;100800.16;;;11.66;83.62
80585;BME280;70137;56.482;9.154;2023-07-20T02:24:46;100806.97;;;11.67;83.15
80585;BME280;70137;56.482;9.154;2023-07-20T02:27:11;100802.44;;;11.69;83.91
80585;BME280;70137;56.482;9.154;2023-07-20T02:29:36;100812.63;;;11.71;83.61
80585;BME280;70137;56.482;9.154;2023-07-20T02:32:02;100802.25;;;11.71;84.10
80585;BME280;70137;56.482;9.154;2023-07-20T02:34:28;100805.03;;;11.69;83.14
80585;BME280;70137;56.482;9.154;2023-07-20T02:36:53;100806.31;;;11.65;84.16
80585;BME280;70137;56.482;9.154;2023-07-20T02:39:21;100807.66;;;11.61;83.94
80585;BME280;70137;56.482;9.154;2023-07-20T02:41:46;100810.91;;;11.55;84.19
80585;BME280;70137;56.482;9.154;2023-07-20T02:44:14;100809.63;;;11.51;84.30
80585;BME280;70137;56.482;9.154;2023-07-20T02:46:39;100806.41;;;11.49;83.98
80585;BME280;70137;56.482;9.154;2023-07-20T02:49:04;100809.00;;;11.49;84.67
80585;BME280;70137;56.482;9.154;2023-07-20T02:51:30;100806.41;;;11.49;84.57
80585;BME280;70137;56.482;9.154;2023-07-20T02:53:55;100803.00;;;11.49;83.84
80585;BME280;70137;56.482;9.154;2023-07-20T02:56:20;100813.53;;;11.47;84.26
80585;BME280;70137;56.482;9.154;2023-07-20T02:58:46;100797.31;;;11.45;84.38
80585;BME280;70137;56.482;9.154;2023-07-20T03:01:11;100799.28;;;11.43;84.82
80585;BME280;70137;56.482;9.154;2023-07-20T03:03:37;100789.69;;;11.43;84.36
80585;BME280;70137;56.482;9.154;2023-07-20T03:06:06;100799.28;;;11.43;84.39
80585;BME280;70137;56.482;9.154;2023-07-20T03:08:34;100805.59;;;11.40;83.79
80585;BME280;70137;56.482;9.154;2023-07-20T03:10:59;100799.75;;;11.38;84.30
80585;BME280;70137;56.482;9.154;2023-07-20T03:13:24;100798.94;;;11.38;84.27
80585;BME280;70137;56.482;9.154;2023-07-20T03:15:52;100799.13;;;11.36;84.10
80585;BME280;70137;56.482;9.154;2023-07-20T03:18:17;100795.72;;;11.36;83.82
80585;BME280;70137;56.482;9.154;2023-07-20T03:20:42;100801.88;;;11.35;84.59
80585;BME280;70137;56.482;9.154;2023-07-20T03:23:08;100799.94;;;11.29;84.05
80585;BME280;70137;56.482;9.154;2023-07-20T03:25:33;100802.88;;;11.26;84.26
80585;BME280;70137;56.482;9.154;2023-07-20T03:27:59;100805.81;;;11.23;84.88
80585;BME280;70137;56.482;9.154;2023-07-20T03:30:24;100803.38;;;11.21;85.06
80585;BME280;70137;56.482;9.154;2023-07-20T03:32:50;100804.38;;;11.20;84.37
80585;BME280;70137;56.482;9.154;2023-07-20T03:35:16;100807.59;;;11.22;85.04
80585;BME280;70137;56.482;9.154;2023-07-20T03:37:41;100798.84;;;11.23;84.95
80585;BME280;70137;56.482;9.154;2023-07-20T03:40:07;100815.03;;;11.25;84.36
80585;BME280;70137;56.482;9.154;2023-07-20T03:42:33;100812.44;;;11.25;84.56
80585;BME280;70137;56.482;9.154;2023-07-20T03:44:58;100814.88;;;11.27;84.64
80585;BME280;70137;56.482;9.154;2023-07-20T03:47:23;100816.81;;;11.25;85.10
80585;BME280;70137;56.482;9.154;2023-07-20T03:49:49;100806.78;;;11.22;84.54
80585;BME280;70137;56.482;9.154;2023-07-20T03:52:14;100808.75;;;11.20;85.06
80585;BME280;70137;56.482;9.154;2023-07-20T03:54:40;100810.66;;;11.17;85.12
80585;BME280;70137;56.482;9.154;2023-07-20T03:57:05;100806.47;;;11.16;85.08
80585;BME280;70137;56.482;9.154;2023-07-20T03:59:30;100807.44;;;11.15;85.35
80585;BME280;70137;56.482;9.154;2023-07-20T04:01:56;100804.66;;;11.17;85.24
80585;BME280;70137;56.482;9.154;2023-07-20T04:04:21;100808.75;;;11.20;84.99
80585;BME280;70137;56.482;9.154;2023-07-20T04:06:46;100799.97;;;11.21;85.21
80585;BME280;70137;56.482;9.154;2023-07-20T04:09:12;100807.59;;;11.22;84.83
80585;BME280;70137;56.482;9.154;2023-07-20T04:11:38;100809.22;;;11.23;84.86
80585;BME280;70137;56.482;9.154;2023-07-20T04:14:04;100812.28;;;11.27;85.24
80585;BME280;70137;56.482;9.154;2023-07-20T04:16:29;100809.19;;;11.31;84.54
80585;BME280;70137;56.482;9.154;2023-07-20T04:18:55;100805.78;;;11.31;84.63
80585;BME280;70137;56.482;9.154;2023-07-20T04:21:21;100812.25;;;11.35;84.89
80585;BME280;70137;56.482;9.154;2023-07-20T04:23:47;100809.00;;;11.41;84.79
80585;BME280;70137;56.482;9.154;2023-07-20T04:26:12;100814.84;;;11.43;84.49
80585;BME280;70137;56.482;9.154;2023-07-20T04:28:38;100812.06;;;11.44;84.48
80585;BME280;70137;56.482;9.154;2023-07-20T04:31:12;100807.88;;;11.43;84.54
80585;BME280;70137;56.482;9.154;2023-07-20T04:33:38;100814.22;;;11.41;84.35
80585;BME280;70137;56.482;9.154;2023-07-20T04:36:03;100810.47;;;11.43;83.78
80585;BME280;70137;56.482;9.154;2023-07-20T04:38:29;100807.41;;;11.40;84.71
80585;BME280;70137;56.482;9.154;2023-07-20T04:40:55;100802.16;;;11.48;83.92
80585;BME280;70137;56.482;9.154;2023-07-20T04:43:20;100804.72;;;11.56;83.86
80585;BME280;70137;56.482;9.154;2023-07-20T04:45:45;100804.06;;;11.62;84.45
80585;BME280;70137;56.482;9.154;2023-07-20T04:48:13;100807.28;;;11.72;83.52
80585;BME280;70137;56.482;9.154;2023-07-20T04:50:40;100807.09;;;11.82;83.42
80585;BME280;70137;56.482;9.154;2023-07-20T04:53:06;100807.91;;;11.83;83.90
80585;BME280;70137;56.482;9.154;2023-07-20T04:55:31;100808.88;;;11.82;83.89
80585;BME280;70137;56.482;9.154;2023-07-20T04:57:59;100813.91;;;11.83;84.31
80585;BME280;70137;56.482;9.154;2023-07-20T05:00:25;100811.78;;;11.87;84.47
80585;BME280;70137;56.482;9.154;2023-07-20T05:02:50;100809.84;;;11.89;83.51
80585;BME280;70137;56.482;9.154;2023-07-20T05:05:16;100807.53;;;11.94;83.65
80585;BME280;70137;56.482;9.154;2023-07-20T05:07:41;100802.66;;;11.99;83.83
80585;BME280;70137;56.482;9.154;2023-07-20T05:10:07;100802.25;;;12.10;83.29
80585;BME280;70137;56.482;9.154;2023-07-20T05:12:32;100794.00;;;12.29;83.75
80585;BME280;70137;56.482;9.154;2023-07-20T05:14:57;100794.88;;;12.45;83.44
80585;BME280;70137;56.482;9.154;2023-07-20T05:17:23;100790.59;;;12.52;83.36
80585;BME280;70137;56.482;9.154;2023-07-20T05:19:49;100795.13;;;12.58;82.17
80585;BME280;70137;56.482;9.154;2023-07-20T05:22:15;100797.47;;;12.68;82.75
80585;BME280;70137;56.482;9.154;2023-07-20T05:24:40;100800.63;;;12.78;82.10
80585;BME280;70137;56.482;9.154;2023-07-20T05:27:05;100801.38;;;12.86;81.05
80585;BME280;70137;56.482;9.154;2023-07-20T05:29:31;100799.16;;;12.98;80.52
80585;BME280;70137;56.482;9.154;2023-07-20T05:31:57;100787.03;;;12.90;81.03
80585;BME280;70137;56.482;9.154;2023-07-20T05:34:22;100789.34;;;12.85;81.66
80585;BME280;70137;56.482;9.154;2023-07-20T05:36:47;100792.28;;;12.82;80.72
80585;BME280;70137;56.482;9.154;2023-07-20T05:39:13;100795.88;;;12.81;81.68
80585;BME280;70137;56.482;9.154;2023-07-20T05:41:38;100796.09;;;12.95;80.64
80585;BME280;70137;56.482;9.154;2023-07-20T05:44:03;100799.19;;;13.13;80.97
80585;BME280;70137;56.482;9.154;2023-07-20T05:46:28;100792.22;;;13.28;79.68
80585;BME280;70137;56.482;9.154;2023-07-20T05:48:54;100795.53;;;13.22;80.28
80585;BME280;70137;56.482;9.154;2023-07-20T05:51:19;100798.69;;;13.32;79.57
80585;BME280;70137;56.482;9.154;2023-07-20T05:53:44;100803.63;;;13.27;80.01
80585;BME280;70137;56.482;9.154;2023-07-20T05:56:10;100800.94;;;13.35;80.19
80585;BME280;70137;56.482;9.154;2023-07-20T05:58:36;100793.75;;;13.52;80.73
80585;BME280;70137;56.482;9.154;2023-07-20T06:01:01;100795.50;;;13.81;79.86
80585;BME280;70137;56.482;9.154;2023-07-20T06:03:27;100798.63;;;13.91;80.24
80585;BME280;70137;56.482;9.154;2023-07-20T06:05:59;100796.06;;;14.13;78.58
80585;BME280;70137;56.482;9.154;2023-07-20T06:08:24;100791.72;;;14.41;78.48
80585;BME280;70137;56.482;9.154;2023-07-20T06:10:50;100790.88;;;14.55;79.47
80585;BME280;70137;56.482;9.154;2023-07-20T06:13:17;100790.06;;;14.55;78.96
80585;BME280;70137;56.482;9.154;2023-07-20T06:15:42;100792.06;;;14.53;79.39
80585;BME280;70137;56.482;9.154;2023-07-20T06:18:08;100797.06;;;14.54;80.12
80585;BME280;70137;56.482;9.154;2023-07-20T06:20:34;100793.47;;;14.55;79.65
80585;BME280;70137;56.482;9.154;2023-07-20T06:22:59;100796.50;;;14.80;79.40
80585;BME280;70137;56.482;9.154;2023-07-20T06:25:25;100794.28;;;14.77;79.47
80585;BME280;70137;56.482;9.154;2023-07-20T06:27:50;100803.91;;;14.77;78.37
80585;BME280;70137;56.482;9.154;2023-07-20T06:30:19;100802.16;;;14.63;78.91
80585;BME280;70137;56.482;9.154;2023-07-20T06:32:44;100803.16;;;14.62;79.26
80585;BME280;70137;56.482;9.154;2023-07-20T06:35:10;100801.78;;;14.66;79.52
80585;BME280;70137;56.482;9.154;2023-07-20T06:37:35;100801.44;;;14.69;78.92
80585;BME280;70137;56.482;9.154;2023-07-20T06:40:04;100795.44;;;14.75;78.89
80585;BME280;70137;56.482;9.154;2023-07-20T06:42:30;100804.28;;;14.74;79.41
80585;BME280;70137;56.482;9.154;2023-07-20T06:44:57;100807.13;;;14.79;79.49
80585;BME280;70137;56.482;9.154;2023-07-20T06:47:22;100799.34;;;14.85;79.95
80585;BME280;70137;56.482;9.154;2023-07-20T06:49:47;100810.88;;;14.98;79.96
80585;BME280;70137;56.482;9.154;2023-07-20T06:52:13;100803.66;;;15.00;79.00
80585;BME280;70137;56.482;9.154;2023-07-20T06:54:38;100806.28;;;15.00;78.44
80585;BME280;70137;56.482;9.154;2023-07-20T06:57:04;100805.28;;;15.01;78.98
80585;BME280;70137;56.482;9.154;2023-07-20T06:59:30;100806.13;;;15.08;79.09
80585;BME280;70137;56.482;9.154;2023-07-20T07:01:55;100802.19;;;15.18;78.85
80585;BME280;70137;56.482;9.154;2023-07-20T07:04:21;100804.66;;;15.27;78.29
80585;BME280;70137;56.482;9.154;2023-07-20T07:06:46;100809.09;;;15.33;78.59
80585;BME280;70137;56.482;9.154;2023-07-20T07:09:12;100792.63;;;15.32;78.03
80585;BME280;70137;56.482;9.154;2023-07-20T07:11:37;100806.72;;;15.38;78.29
80585;BME280;70137;56.482;9.154;2023-07-20T07:14:02;100805.19;;;15.50;77.25
80585;BME280;70137;56.482;9.154;2023-07-20T07:16:28;100798.06;;;15.72;77.19
80585;BME280;70137;56.482;9.154;2023-07-20T07:18:53;100805.16;;;15.85;76.08
80585;BME280;70137;56.482;9.154;2023-07-20T07:21:19;100801.41;;;16.07;75.76
80585;BME280;70137;56.482;9.154;2023-07-20T07:23:45;100814.75;;;16.39;73.13
80585;BME280;70137;56.482;9.154;2023-07-20T07:26:10;100797.47;;;16.64;73.02
80585;BME280;70137;56.482;9.154;2023-07-20T07:28:36;100803.94;;;16.68;71.47
80585;BME280;70137;56.482;9.154;2023-07-20T07:31:04;100809.16;;;16.68;71.62
80585;BME280;70137;56.482;9.154;2023-07-20T07:33:30;100811.53;;;16.56;71.73
80585;BME280;70137;56.482;9.154;2023-07-20T07:35:56;100824.00;;;16.35;71.44
80585;BME280;70137;56.482;9.154;2023-07-20T07:38:21;100831.19;;;16.13;71.86
80585;BME280;70137;56.482;9.154;2023-07-20T07:40:46;100821.41;;;15.80;72.99
80585;BME280;70137;56.482;9.154;2023-07-20T07:43:12;100833.19;;;15.28;73.56
80585;BME280;70137;56.482;9.154;2023-07-20T07:45:39;100832.19;;;15.01;74.75
80585;BME280;70137;56.482;9.154;2023-07-20T07:48:05;100834.06;;;14.86;76.10
80585;BME280;70137;56.482;9.154;2023-07-20T07:50:31;100830.75;;;14.71;76.17
80585;BME280;70137;56.482;9.154;2023-07-20T07:52:57;100838.16;;;14.67;76.92
80585;BME280;70137;56.482;9.154;2023-07-20T07:55:22;100837.97;;;14.69;77.46
80585;BME280;70137;56.482;9.154;2023-07-20T07:57:47;100843.97;;;14.69;77.76
80585;BME280;70137;56.482;9.154;2023-07-20T08:00:14;100848.44;;;14.75;78.27
80585;BME280;70137;56.482;9.154;2023-07-20T08:02:42;100840.88;;;14.80;78.77
80585;BME280;70137;56.482;9.154;2023-07-20T08:05:09;100845.09;;;14.81;78.76
80585;BME280;70137;56.482;9.154;2023-07-20T08:07:35;100845.75;;;14.90;78.46
80585;BME280;70137;56.482;9.154;2023-07-20T08:10:01;100850.47;;;15.01;78.07
80585;BME280;70137;56.482;9.154;2023-07-20T08:12:26;100851.69;;;15.05;78.08
80585;BME280;70137;56.482;9.154;2023-07-20T08:14:52;100849.91;;;15.06;78.31
80585;BME280;70137;56.482;9.154;2023-07-20T08:17:17;100847.09;;;15.07;78.71
80585;BME280;70137;56.482;9.154;2023-07-20T08:19:43;100863.13;;;15.04;78.54
80585;BME280;70137;56.482;9.154;2023-07-20T08:22:09;100865.91;;;14.96;78.74
80585;BME280;70137;56.482;9.154;2023-07-20T08:24:34;100874.84;;;14.87;78.69
80585;BME280;70137;56.482;9.154;2023-07-20T08:27:00;100870.69;;;14.71;78.34
80585;BME280;70137;56.482;9.154;2023-07-20T08:29:25;100866.78;;;14.60;78.83
80585;BME280;70137;56.482;9.154;2023-07-20T08:31:50;100872.31;;;14.51;78.27
80585;BME280;70137;56.482;9.154;2023-07-20T08:34:15;100865.22;;;14.45;78.90
80585;BME280;70137;56.482;9.154;2023-07-20T08:36:41;100865.75;;;14.40;78.44
80585;BME280;70137;56.482;9.154;2023-07-20T08:39:06;100863.47;;;14.37;78.43
80585;BME280;70137;56.482;9.154;2023-07-20T08:41:34;100856.78;;;14.64;77.73
80585;BME280;70137;56.482;9.154;2023-07-20T08:44:00;100860.53;;;15.04;77.65
80585;BME280;70137;56.482;9.154;2023-07-20T08:46:27;100848.13;;;15.41;77.74
80585;BME280;70137;56.482;9.154;2023-07-20T08:48:54;100850.00;;;15.88;79.17
80585;BME280;70137;56.482;9.154;2023-07-20T08:51:21;100854.59;;;16.34;78.04
80585;BME280;70137;56.482;9.154;2023-07-20T08:53:47;100854.28;;;16.70;75.94
80585;BME280;70137;56.482;9.154;2023-07-20T08:56:14;100851.81;;;16.55;76.41
80585;BME280;70137;56.482;9.154;2023-07-20T08:58:43;100862.66;;;16.46;76.68
80585;BME280;70137;56.482;9.154;2023-07-20T09:01:10;100861.03;;;16.31;76.71
80585;BME280;70137;56.482;9.154;2023-07-20T09:03:36;100857.19;;;16.27;76.08
80585;BME280;70137;56.482;9.154;2023-07-20T09:06:04;100864.63;;;16.24;75.69
80585;BME280;70137;56.482;9.154;2023-07-20T09:08:30;100866.22;;;16.18;75.50
80585;BME280;70137;56.482;9.154;2023-07-20T09:10:55;100864.59;;;16.17;75.79
80585;BME280;70137;56.482;9.154;2023-07-20T09:13:21;100863.00;;;16.16;75.68
80585;BME280;70137;56.482;9.154;2023-07-20T09:15:47;100867.81;;;16.19;76.07
80585;BME280;70137;56.482;9.154;2023-07-20T09:18:23;100866.63;;;16.28;75.74
80585;BME280;70137;56.482;9.154;2023-07-20T09:20:49;100866.28;;;16.58;74.14
80585;BME280;70137;56.482;9.154;2023-07-20T09:23:14;100869.59;;;16.73;75.20
80585;BME280;70137;56.482;9.154;2023-07-20T09:25:40;100874.81;;;17.13;74.24
80585;BME280;70137;56.482;9.154;2023-07-20T09:28:06;100876.22;;;17.29;73.32
80585;BME280;70137;56.482;9.154;2023-07-20T09:30:31;100878.03;;;17.28;72.28
80585;BME280;70137;56.482;9.154;2023-07-20T09:32:57;100867.06;;;17.64;72.94
80585;BME280;70137;56.482;9.154;2023-07-20T09:35:24;100866.91;;;17.59;70.31
80585;BME280;70137;56.482;9.154;2023-07-20T09:38:00;100879.38;;;17.64;69.25
80585;BME280;70137;56.482;9.154;2023-07-20T09:40:26;100873.94;;;17.72;68.79
80585;BME280;70137;56.482;9.154;2023-07-20T09:42:53;100877.22;;;18.12;68.32
80585;BME280;70137;56.482;9.154;2023-07-20T09:45:35;100880.88;;;18.43;64.77
80585;BME280;70137;56.482;9.154;2023-07-20T09:48:05;100879.91;;;18.37;62.90
80585;BME280;70137;56.482;9.154;2023-07-20T09:50:31;100881.75;;;18.30;63.68
80585;BME280;70137;56.482;9.154;2023-07-20T09:52:56;100883.25;;;18.51;64.26
80585;BME280;70137;56.482;9.154;2023-07-20T09:55:25;100881.72;;;18.75;61.83
80585;BME280;70137;56.482;9.154;2023-07-20T09:57:52;100899.34;;;18.68;61.74
80585;BME280;70137;56.482;9.154;2023-07-20T10:00:18;100893.91;;;18.63;61.74
80585;BME280;70137;56.482;9.154;2023-07-20T10:02:45;100902.19;;;18.59;58.65
80585;BME280;70137;56.482;9.154;2023-07-20T10:05:14;100910.13;;;18.53;57.85
80585;BME280;70137;56.482;9.154;2023-07-20T10:07:44;100906.06;;;18.50;59.19
80585;BME280;70137;56.482;9.154;2023-07-20T10:10:11;100917.38;;;18.51;57.09
80585;BME280;70137;56.482;9.154;2023-07-20T10:12:39;100914.81;;;18.44;59.45
80585;BME280;70137;56.482;9.154;2023-07-20T10:15:20;100922.25;;;18.47;58.05
80585;BME280;70137;56.482;9.154;2023-07-20T10:18:12;100909.59;;;18.38;57.93
80585;BME280;70137;56.482;9.154;2023-07-20T10:20:40;100910.72;;;18.48;56.89
80585;BME280;70137;56.482;9.154;2023-07-20T10:23:07;100917.44;;;18.44;56.81
80585;BME280;70137;56.482;9.154;2023-07-20T10:25:33;100911.66;;;18.29;56.42
80585;BME280;70137;56.482;9.154;2023-07-20T10:28:04;100915.34;;;18.15;56.31
80585;BME280;70137;56.482;9.154;2023-07-20T10:30:30;100902.69;;;18.05;57.41
80585;BME280;70137;56.482;9.154;2023-07-20T10:32:56;100897.81;;;18.09;59.09
80585;BME280;70137;56.482;9.154;2023-07-20T10:35:22;100897.53;;;18.23;58.13
80585;BME280;70137;56.482;9.154;2023-07-20T10:38:02;100903.66;;;18.49;57.84
80585;BME280;70137;56.482;9.154;2023-07-20T10:40:37;100905.97;;;18.70;58.23
80585;BME280;70137;56.482;9.154;2023-07-20T10:43:08;100910.06;;;18.91;56.60
80585;BME280;70137;56.482;9.154;2023-07-20T10:48:03;100912.50;;;18.93;57.11
80585;BME280;70137;56.482;9.154;2023-07-20T10:50:28;100917.44;;;18.82;56.16
80585;BME280;70137;56.482;9.154;2023-07-20T10:53:13;100919.09;;;18.70;56.28
80585;BME280;70137;56.482;9.154;2023-07-20T10:55:40;100918.34;;;18.63;56.06
80585;BME280;70137;56.482;9.154;2023-07-20T10:58:10;100916.19;;;18.53;57.59
80585;BME280;70137;56.482;9.154;2023-07-20T11:00:37;100919.66;;;18.41;56.76
80585;BME280;70137;56.482;9.154;2023-07-20T11:03:31;100921.72;;;18.32;57.61
80585;BME280;70137;56.482;9.154;2023-07-20T11:05:57;100913.81;;;18.39;57.67
80585;BME280;70137;56.482;9.154;2023-07-20T11:08:40;100912.53;;;18.54;57.56
80585;BME280;70137;56.482;9.154;2023-07-20T11:11:22;100907.63;;;18.96;56.76
80585;BME280;70137;56.482;9.154;2023-07-20T11:14:06;100919.91;;;19.02;55.45
80585;BME280;70137;56.482;9.154;2023-07-20T11:16:38;100913.19;;;19.06;54.21
80585;BME280;70137;56.482;9.154;2023-07-20T11:19:05;100924.38;;;19.02;52.78
80585;BME280;70137;56.482;9.154;2023-07-20T11:21:41;100921.94;;;18.69;53.42
80585;BME280;70137;56.482;9.154;2023-07-20T11:24:07;100922.91;;;18.36;54.49
80585;BME280;70137;56.482;9.154;2023-07-20T11:26:48;100924.59;;;18.24;55.97
80585;BME280;70137;56.482;9.154;2023-07-20T11:29:16;100922.34;;;18.34;56.58
80585;BME280;70137;56.482;9.154;2023-07-20T11:31:42;100926.56;;;18.35;56.29
80585;BME280;70137;56.482;9.154;2023-07-20T11:34:12;100934.19;;;18.43;56.18
80585;BME280;70137;56.482;9.154;2023-07-20T11:36:43;100937.44;;;18.39;56.08
80585;BME280;70137;56.482;9.154;2023-07-20T11:39:10;100927.75;;;18.39;57.10
80585;BME280;70137;56.482;9.154;2023-07-20T11:41:36;100922.47;;;18.46;55.32
80585;BME280;70137;56.482;9.154;2023-07-20T11:44:01;100924.41;;;18.57;54.86
80585;BME280;70137;56.482;9.154;2023-07-20T11:46:28;100938.16;;;18.52;54.88
80585;BME280;70137;56.482;9.154;2023-07-20T11:48:58;100914.97;;;18.49;53.25
80585;BME280;70137;56.482;9.154;2023-07-20T11:51:28;100929.13;;;18.48;52.67
80585;BME280;70137;56.482;9.154;2023-07-20T11:53:54;100933.47;;;18.99;51.74
80585;BME280;70137;56.482;9.154;2023-07-20T11:56:20;100919.97;;;19.39;51.40
80585;BME280;70137;56.482;9.154;2023-07-20T11:58:45;100917.06;;;19.72;51.64
80585;BME280;70137;56.482;9.154;2023-07-20T12:01:15;100921.66;;;19.77;52.37
80585;BME280;70137;56.482;9.154;2023-07-20T12:03:42;100924.72;;;20.10;50.38
80585;BME280;70137;56.482;9.154;2023-07-20T12:06:08;100921.06;;;20.11;51.24
80585;BME280;70137;56.482;9.154;2023-07-20T12:08:34;100920.78;;;20.01;51.05
80585;BME280;70137;56.482;9.154;2023-07-20T12:10:59;100923.88;;;19.98;51.31
80585;BME280;70137;56.482;9.154;2023-07-20T12:13:45;100928.63;;;19.89;49.89
80585;BME280;70137;56.482;9.154;2023-07-20T12:16:15;100932.09;;;19.65;49.21
80585;BME280;70137;56.482;9.154;2023-07-20T12:18:42;100929.06;;;19.43;50.73
80585;BME280;70137;56.482;9.154;2023-07-20T12:21:08;100924.81;;;19.85;49.93
80585;BME280;70137;56.482;9.154;2023-07-20T12:23:41;100921.94;;;20.05;48.61
80585;BME280;70137;56.482;9.154;2023-07-20T12:26:10;100928.28;;;20.16;48.12
80585;BME280;70137;56.482;9.154;2023-07-20T12:28:39;100921.16;;;20.35;47.56
80585;BME280;70137;56.482;9.154;2023-07-20T12:31:06;100931.19;;;20.44;48.49
80585;BME280;70137;56.482;9.154;2023-07-20T12:33:32;100931.91;;;20.51;46.56
80585;BME280;70137;56.482;9.154;2023-07-20T12:35:57;100938.88;;;20.46;46.45
80585;BME280;70137;56.482;9.154;2023-07-20T12:38:24;100938.63;;;20.17;47.62
80585;BME280;70137;56.482;9.154;2023-07-20T12:40:50;100936.56;;;20.19;48.21
80585;BME280;70137;56.482;9.154;2023-07-20T12:43:16;100938.63;;;20.17;47.76
80585;BME280;70137;56.482;9.154;2023-07-20T12:45:42;100940.00;;;20.01;47.32
80585;BME280;70137;56.482;9.154;2023-07-20T12:48:07;100943.91;;;19.99;48.72
80585;BME280;70137;56.482;9.154;2023-07-20T12:50:33;100938.47;;;19.94;47.16
80585;BME280;70137;56.482;9.154;2023-07-20T12:52:58;100949.00;;;19.76;46.83
80585;BME280;70137;56.482;9.154;2023-07-20T12:55:23;100939.78;;;19.85;47.96
80585;BME280;70137;56.482;9.154;2023-07-20T12:57:48;100936.72;;;19.88;48.45
80585;BME280;70137;56.482;9.154;2023-07-20T13:00:15;100937.31;;;20.08;46.88
80585;BME280;70137;56.482;9.154;2023-07-20T13:02:41;100947.97;;;19.95;45.91
80585;BME280;70137;56.482;9.154;2023-07-20T13:05:07;100942.19;;;20.05;45.81
80585;BME280;70137;56.482;9.154;2023-07-20T13:07:37;100944.19;;;19.91;47.07
80585;BME280;70137;56.482;9.154;2023-07-20T13:10:03;100938.06;;;19.79;47.29